Southfield, MA (01259)

8:07 AM EDT on August 02, 2015 (GMT -0400)
Mill River | | Change Station
CLOSE
Current Station
Personal Weather Station
Location: New Marlborough, MA
Elevation: 955 ft
Nearby Weather Stations

Elev 955 ft 42.09 °N, 73.29 °W | Updated 6 seconds ago

Clear
Clear
63.0 °F
Feels Like 63.0 °F
N
0.0
Wind Variable Wind from ESE
Gusts 0.0 mph

Today
High -- | Low -- °F
--% Chance of Precip.
Yesterday
High -- | Low -- °F
Precip. -- in
5:47 AM 8:11 PM
Waning Gibbous, 94% visible
Pressure 29.86 in
Visibility 10.0 miles
Clouds Clear
Dew Point 60 °F
Humidity 91%
Rainfall 0.00 in
Snow Depth Not available.
UV 2 out of 12
Pollen 7.40 out of 12
Air Quality Not available.
Flu Activity Not available.
METAR KPSF 021154Z AUTO 03003KT 10SM CLR 16/13 A2992 RMK AO2 SLP110 70002 T01610133 10161 20106 53010

More Conditions Fewer Conditions

Pressure 29.86 in
Visibility 10.0 miles
Clouds Clear
Dew Point 60 °F
Humidity 91%
Rainfall 0.00 in
Snow Depth Not available.
UV 2 out of 12
Pollen 7.40 out of 12
Air Quality Not available.
Flu Activity Not available.
METAR KPSF 021154Z AUTO 03003KT 10SM CLR 16/13 A2992 RMK AO2 SLP110 70002 T01610133 10161 20106 53010

More Conditions Fewer Conditions

10-Day Weather Forecast

×

Almanac

Astronomy

Aug. 02, 2015 Rise Set
Actual Time
Civil Twilight
Nautical Twilight
Astronomical Twilight
Moon
Length of Visible Light
Length of Day
Tomorrow will be .
, % of the Moon is Illuminated

Today's Extremes

State Highs State Lows

Community

WunderPhotos

Upload Photos

1,843,233 photos uploaded!

WunderBlogs® & News

Nearby

Air Quality

  Air Quality AQ Index Pollutant
Not available.

Snow Depth

Station Depth Elevation

Earthquake Activity

City Distance Mag. Time & Date
Minimum magnitude displayed is 2.5.

Coastal Water Temperatures

Place Temperature

Stations

Nearby Weather Stations

Station Location Temp. Windchill Dew Point Humidity Wind Precip. Elev Updated Type